Terminal Aerodrome Forecast
Issued by NWS

Home | Current Version | Previous Version | Text Only | Print | Product List | Glossary On
Versions: 1 2 3 4 5 6 7 8 9 10 11 12 13 14 15 16 17 18 19 20 21 22
000
FTUS41 KGYX 232320
TAFPSM
TAF
KPSM 232320Z 2400/2424 17008KT 6SM BR BKN090
     FM240700 21009KT 3SM BR OVC015
     FM240900 21008KT 4SM -SHRA BR SCT003 OVC015
     FM241500 27008KT P6SM BKN035=

USA.gov is the U.S. government's official web portal to all federal, state and local government web resources and services.